Elton, WI (54430)

3:37 AM CST on February 08, 2016 (GMT -0600)
Langlade County | | Change Station
CLOSE
Current Station
Airport
Location: Antigo,
Elevation: 1522 ft
Nearby Weather Stations

Elev 1522 ft 45.16 °N, 89.11 °W | Updated 22 minutes ago

Overcast
Overcast
26 °F
Feels Like 16 °F
N
10
Wind Variable Wind from WNW

Today
High -- | Low -- °F
--% Chance of Precip.
Yesterday
High -- | Low -- °F
Precip. -- in
Pressure 29.53 in
Visibility 10.0 miles
Clouds Mostly Cloudy 7000 ft
Overcast 9000 ft
Windchill 16 °F
Dew Point 24 °F
Humidity 91%
Rainfall 0.00 in
Snow Depth Not available.
7:07 AM 5:12 PM
Waning Crescent, 0% visible
METAR KAIG 080915Z AUTO 30009KT 10SM BKN070 OVC090 M03/M05 A2953 RMK AO2 T10341047
Pressure 29.53 in
Visibility 10.0 miles
Clouds Mostly Cloudy 7000 ft
Overcast 9000 ft
Windchill 16 °F
Dew Point 24 °F
Humidity 91%
Rainfall 0.00 in
Snow Depth Not available.
7:07 AM 5:12 PM
Waning Crescent, 0% visible
METAR KAIG 080915Z AUTO 30009KT 10SM BKN070 OVC090 M03/M05 A2953 RMK AO2 T10341047

10-Day Weather Forecast

Almanac

Astronomy

Feb. 08, 2016 Rise Set
Actual Time
Civil Twilight
Nautical Twilight
Astronomical Twilight
Moon
Length of Visible Light
Length of Day
Tomorrow will be .
, % of the Moon is Illuminated

Today's Extremes

State Highs State Lows

Community

WunderPhotos

Upload Photos

1,891,412 photos uploaded!

WunderBlog® & News

Nearby

Air Quality

  Air Quality AQ Index Pollutant
Not available.

Snow Depth

Station Depth Elevation

Earthquake Activity

City Distance Mag. Time & Date
Minimum magnitude displayed is 2.5.

Coastal Water Temperatures

Place Temperature

Stations

Nearby Weather Stations

Station Location Temp. Windchill Dew Point Humidity Wind Precip. Elev Updated Type
                   

Watches & Warnings

There are currently no watches in effect.